Time;durP1;ratioP1;P1;durP2;ratioP2;P2;SDS_P1;SDS_P2;PMS_P1;PMS_P2;Temp;Humidity;BMP_temperature;BMP_pressure;BME280_temperature;BME280_humidity;BME280_pressure;Samples;Min_cycle;Max_cycle;Signal;HPM_P1;HPM_P2
2022/06/17 00:02:06;;;;;;;3.20;3.00;;;22.40;25.90;;;;;;10542652;28;20252;-77
2022/06/17 00:07:15;;;;;;;3.00;2.80;;;22.30;26.20;;;;;;10528897;28;20608;-76
2022/06/17 00:12:18;;;;;;;3.00;2.67;;;22.20;26.80;;;;;;10535409;28;20231;-76
2022/06/17 00:17:23;;;;;;;3.87;3.10;;;22.10;26.10;;;;;;10544905;28;20235;-77
2022/06/17 00:22:26;;;;;;;4.53;3.47;;;22.00;26.70;;;;;;10538796;28;20229;-77
2022/06/17 00:27:29;;;;;;;3.23;2.93;;;22.00;26.70;;;;;;10561249;27;20227;-77
2022/06/17 00:32:35;;;;;;;3.47;3.17;;;21.90;26.50;;;;;;10557348;28;20228;-76
2022/06/17 00:37:38;;;;;;;3.20;2.90;;;21.80;26.60;;;;;;10543868;28;20231;-76
2022/06/17 00:42:43;;;;;;;3.37;3.07;;;21.80;26.50;;;;;;10546538;28;20228;-77
2022/06/17 00:47:55;;;;;;;13.20;2.80;;;21.70;26.50;;;;;;10535237;28;20238;-75
2022/06/17 00:53:10;;;;;;;4.83;3.10;;;21.70;27.20;;;;;;10542569;28;20233;-76
2022/06/17 00:58:18;;;;;;;3.47;3.20;;;21.60;27.00;;;;;;10534637;28;20227;-76
2022/06/17 01:03:26;;;;;;;3.00;2.80;;;21.60;26.80;;;;;;10534759;28;20719;-74
2022/06/17 01:13:56;;;;;;;2.93;2.67;;;21.60;26.40;;;;;;10576456;28;20226;-76
2022/06/17 01:19:06;;;;;;;3.63;3.30;;;21.60;26.40;;;;;;10576067;28;20222;-76
2022/06/17 01:24:11;;;;;;;3.33;3.13;;;21.50;27.40;;;;;;10590804;27;20229;-75
2022/06/17 01:29:15;;;;;;;3.17;2.97;;;21.40;27.30;;;;;;10575935;27;20226;-76
2022/06/17 01:34:19;;;;;;;3.90;3.60;;;21.30;26.60;;;;;;10586075;27;20439;-76
2022/06/17 01:39:24;;;;;;;3.63;3.33;;;21.20;26.80;;;;;;10581270;27;20670;-76
2022/06/17 01:44:33;;;;;;;3.50;3.27;;;21.10;27.10;;;;;;10583350;27;20666;-76
2022/06/17 01:49:41;;;;;;;3.97;3.67;;;20.90;27.40;;;;;;10602059;27;20244;-76
2022/06/17 01:54:50;;;;;;;2.93;2.73;;;20.70;27.30;;;;;;10566489;28;20223;-75
2022/06/17 01:59:58;;;;;;;3.60;3.30;;;20.40;27.90;;;;;;10576017;28;20233;-76
2022/06/17 02:05:06;;;;;;;3.67;3.37;;;20.20;28.00;;;;;;10575458;28;20696;-76
2022/06/17 02:10:11;;;;;;;3.77;3.27;;;20.20;28.40;;;;;;10567582;28;20225;-77
2022/06/17 02:15:15;;;;;;;3.20;3.00;;;20.10;28.30;;;;;;10574894;27;20238;-77
2022/06/17 02:20:19;;;;;;;3.70;3.40;;;20.10;28.60;;;;;;10574901;27;20227;-76
2022/06/17 02:25:29;;;;;;;3.50;3.30;;;20.00;28.40;;;;;;10574107;27;20249;-76
2022/06/17 02:30:33;;;;;;;3.57;3.20;;;20.10;29.10;;;;;;10573834;27;20233;-77
2022/06/17 02:35:42;;;;;;;4.17;3.77;;;20.00;28.20;;;;;;10573828;27;20219;-76
2022/06/17 02:40:49;;;;;;;3.57;3.27;;;20.00;28.90;;;;;;10573614;28;20601;-77
2022/06/17 02:45:58;;;;;;;3.60;3.30;;;19.90;29.10;;;;;;10573536;28;20238;-76
2022/06/17 02:51:02;;;;;;;3.20;3.00;;;19.90;28.80;;;;;;10573379;28;20305;-77
2022/06/17 02:56:14;;;;;;;3.37;3.07;;;19.90;28.40;;;;;;10573206;28;20254;-77
2022/06/17 03:01:21;;;;;;;3.03;2.80;;;19.90;29.10;;;;;;10573205;28;20223;-76
2022/06/17 03:06:31;;;;;;;3.37;3.07;;;19.90;28.60;;;;;;10573160;28;20598;-76
2022/06/17 03:11:36;;;;;;;2.90;2.70;;;19.80;28.90;;;;;;10571789;28;20227;-76
2022/06/17 03:16:41;;;;;;;3.30;3.10;;;19.70;28.40;;;;;;10572559;28;20226;-76
2022/06/17 03:21:45;;;;;;;3.17;2.97;;;19.70;28.50;;;;;;10572652;28;20219;-76
2022/06/17 03:26:58;;;;;;;4.13;3.77;;;19.60;28.70;;;;;;10571823;28;20226;-76
2022/06/17 03:32:05;;;;;;;3.83;3.27;;;19.50;29.60;;;;;;10571783;28;20215;-77
2022/06/17 03:37:14;;;;;;;4.07;3.77;;;19.30;28.90;;;;;;10564727;28;20222;-76
2022/06/17 03:42:23;;;;;;;3.83;3.40;;;19.10;29.40;;;;;;10571483;28;20215;-77
2022/06/17 03:47:35;;;;;;;4.07;3.63;;;18.90;29.70;;;;;;10571072;28;20248;-75
2022/06/17 03:52:44;;;;;;;3.87;3.57;;;18.70;30.10;;;;;;10571000;28;20219;-76
2022/06/17 03:57:52;;;;;;;3.17;2.97;;;18.70;30.10;;;;;;10570492;28;20231;-76
2022/06/17 04:02:56;;;;;;;3.80;3.20;;;18.70;30.30;;;;;;10571077;28;20231;-76
2022/06/17 04:08:00;;;;;;;5.20;3.70;;;18.70;29.70;;;;;;10570369;28;20745;-76
2022/06/17 04:13:04;;;;;;;3.90;3.33;;;18.70;29.80;;;;;;10570511;28;20219;-75
2022/06/17 04:18:09;;;;;;;3.77;3.47;;;18.80;30.30;;;;;;10570699;28;20242;-77
2022/06/17 04:23:16;;;;;;;3.90;3.60;;;18.80;30.30;;;;;;10577875;27;20238;-76
2022/06/17 04:28:25;;;;;;;3.77;3.47;;;18.90;30.20;;;;;;10578040;28;20318;-77
2022/06/17 04:33:31;;;;;;;3.90;3.63;;;18.90;30.70;;;;;;10577973;28;20219;-76
2022/06/17 04:38:49;;;;;;;3.57;3.17;;;19.00;30.40;;;;;;10577350;28;20715;-77
2022/06/17 04:43:57;;;;;;;4.17;3.77;;;19.00;31.10;;;;;;10577419;27;20223;-76
2022/06/17 04:49:01;;;;;;;4.67;4.03;;;19.10;31.20;;;;;;10577181;28;20234;-75
2022/06/17 04:54:06;;;;;;;5.03;3.83;;;19.10;30.40;;;;;;10576535;27;20219;-77
2022/06/17 04:59:31;;;;;;;4.43;4.00;;;19.20;30.80;;;;;;10576218;27;20223;-75
2022/06/17 05:04:34;;;;;;;4.20;3.90;;;19.20;31.50;;;;;;10576884;27;20691;-77
2022/06/17 05:09:42;;;;;;;4.43;3.77;;;19.20;30.70;;;;;;10576680;28;20234;-77
2022/06/17 05:14:52;;;;;;;3.90;3.60;;;19.40;31.20;;;;;;10572749;28;20314;-77
2022/06/17 05:19:55;;;;;;;4.27;2.90;;;19.50;31.80;;;;;;10576264;27;20310;-77
2022/06/17 05:25:00;;;;;;;3.47;3.20;;;19.70;30.70;;;;;;10576085;27;20241;-77
2022/06/17 05:30:06;;;;;;;3.40;3.20;;;19.90;31.00;;;;;;10574487;27;20219;-76
2022/06/17 05:35:10;;;;;;;3.73;3.20;;;20.10;31.10;;;;;;10574775;28;20594;-76
2022/06/17 05:40:15;;;;;;;3.90;3.60;;;20.30;30.30;;;;;;10575025;28;20278;-75
2022/06/17 05:45:22;;;;;;;4.13;3.77;;;20.50;30.50;;;;;;10574694;28;20233;-76
2022/06/17 05:50:27;;;;;;;3.67;3.37;;;20.70;31.20;;;;;;10574726;28;20309;-77
2022/06/17 05:55:32;;;;;;;3.07;2.87;;;20.80;30.50;;;;;;10574154;27;20234;-75
2022/06/17 06:00:37;;;;;;;3.10;2.80;;;21.00;30.00;;;;;;10574099;28;20222;-77
2022/06/17 06:05:40;;;;;;;4.23;3.30;;;21.20;29.70;;;;;;10573835;27;20337;-75
2022/06/17 06:10:44;;;;;;;3.70;3.00;;;21.40;29.60;;;;;;10573933;27;20222;-76
2022/06/17 06:15:50;;;;;;;3.03;2.77;;;21.60;29.40;;;;;;10573735;27;20235;-76
2022/06/17 06:20:53;;;;;;;3.20;2.93;;;21.70;29.20;;;;;;10573331;27;20238;-76
2022/06/17 06:25:57;;;;;;;3.00;2.80;;;21.90;29.30;;;;;;10572962;28;20275;-74
2022/06/17 06:31:06;;;;;;;4.50;2.80;;;22.00;29.20;;;;;;10573184;28;20241;-77
2022/06/17 06:36:09;;;;;;;3.00;2.70;;;22.10;29.10;;;;;;10564974;28;20233;-76
2022/06/17 06:41:12;;;;;;;2.83;2.63;;;22.20;29.00;;;;;;10572607;27;20234;-77
2022/06/17 06:46:19;;;;;;;2.90;2.70;;;22.30;28.80;;;;;;10572689;28;20231;-75
2022/06/17 06:51:24;;;;;;;3.30;3.00;;;22.50;28.80;;;;;;10572538;27;20306;-77
2022/06/17 06:56:28;;;;;;;5.37;3.13;;;22.60;28.90;;;;;;10572377;27;20230;-76
2022/06/17 07:01:32;;;;;;;3.53;2.90;;;22.70;28.80;;;;;;10571809;28;20223;-77
2022/06/17 07:06:36;;;;;;;3.37;2.50;;;22.90;28.80;;;;;;10571738;28;20800;-77
2022/06/17 07:11:39;;;;;;;3.67;2.70;;;23.00;28.60;;;;;;10571078;27;20215;-77
2022/06/17 07:16:44;;;;;;;3.10;2.80;;;23.20;28.60;;;;;;10571280;27;20600;-76
2022/06/17 07:21:48;;;;;;;3.23;3.03;;;23.30;28.30;;;;;;10571426;27;20222;-77
2022/06/17 07:26:52;;;;;;;3.87;3.10;;;23.50;28.60;;;;;;10571747;28;20748;-77
2022/06/17 07:31:56;;;;;;;3.20;2.90;;;23.60;29.00;;;;;;10575435;27;20225;-76
2022/06/17 07:42:38;;;;;;;2.70;2.50;;;24.00;28.00;;;;;;10489938;28;20227;-77
2022/06/17 07:47:44;;;;;;;3.43;2.80;;;24.20;28.20;;;;;;10562200;28;20318;-78
2022/06/17 07:52:47;;;;;;;3.27;2.97;;;24.40;28.30;;;;;;10564225;28;20233;-77
2022/06/17 07:57:51;;;;;;;3.30;3.00;;;24.50;28.40;;;;;;10592652;27;20249;-77
2022/06/17 08:02:57;;;;;;;3.17;2.90;;;24.70;27.90;;;;;;10571141;27;20712;-77
2022/06/17 08:08:03;;;;;;;3.20;2.90;;;24.90;27.70;;;;;;10578954;27;20229;-78
2022/06/17 08:13:08;;;;;;;3.00;2.80;;;25.10;27.80;;;;;;10564025;27;20242;-76
2022/06/17 08:18:13;;;;;;;2.80;2.60;;;25.20;27.30;;;;;;10568184;27;20231;-77
2022/06/17 08:23:17;;;;;;;4.60;3.30;;;25.40;27.00;;;;;;10577975;28;20250;-77
2022/06/17 08:28:20;;;;;;;2.80;2.60;;;25.60;27.20;;;;;;10580561;27;20224;-77
2022/06/17 08:33:29;;;;;;;4.30;2.77;;;25.70;26.80;;;;;;10573163;27;20226;-77
2022/06/17 08:38:50;;;;;;;6.37;2.60;;;25.90;26.40;;;;;;10572525;27;21101;-77
2022/06/17 08:44:29;;;;;;;3.33;2.43;;;26.10;26.20;;;;;;10569795;28;20237;-78
2022/06/17 08:49:55;;;;;;;4.67;2.80;;;26.30;26.30;;;;;;10572058;28;20576;-77
2022/06/17 08:55:08;;;;;;;3.10;2.70;;;26.50;25.90;;;;;;10574837;28;20827;-75
2022/06/17 09:00:19;;;;;;;2.70;2.50;;;26.70;25.50;;;;;;10566838;28;20234;-79
2022/06/17 09:05:44;;;;;;;3.77;2.70;;;26.80;24.70;;;;;;10556720;27;20318;-75
2022/06/17 09:10:57;;;;;;;3.60;2.60;;;27.00;23.50;;;;;;10565516;27;20226;-77
2022/06/17 09:16:15;;;;;;;2.70;2.50;;;27.10;23.60;;;;;;10574626;27;20241;-75
2022/06/17 09:21:26;;;;;;;2.83;2.50;;;27.10;24.10;;;;;;10545699;28;20707;-72
2022/06/17 09:26:32;;;;;;;3.70;2.50;;;27.10;23.40;;;;;;10566923;27;20310;-76
2022/06/17 09:31:39;;;;;;;2.80;2.60;;;27.20;23.60;;;;;;10574015;27;20226;-75
2022/06/17 09:36:49;;;;;;;2.63;2.43;;;27.20;23.20;;;;;;10567247;27;21011;-76
2022/06/17 09:41:58;;;;;;;2.53;2.33;;;27.20;22.80;;;;;;10572720;27;20233;-76
2022/06/17 09:47:08;;;;;;;3.33;2.33;;;27.30;22.90;;;;;;10571915;27;20230;-75
2022/06/17 09:52:26;;;;;;;2.80;2.20;;;27.40;22.90;;;;;;10537731;28;20247;-76
2022/06/17 09:57:36;;;;;;;2.20;2.10;;;27.60;22.10;;;;;;10539302;27;20326;-76
2022/06/17 10:02:47;;;;;;;1.97;1.87;;;27.70;22.50;;;;;;10558778;27;20229;-76
2022/06/17 10:07:58;;;;;;;2.23;2.00;;;27.90;21.80;;;;;;10542584;27;20710;-75
2022/06/17 10:13:14;;;;;;;2.23;2.00;;;28.10;21.60;;;;;;10538356;27;20222;-76
2022/06/17 10:18:35;;;;;;;2.20;2.10;;;28.30;21.50;;;;;;10535885;28;20231;-76
2022/06/17 10:23:50;;;;;;;3.40;2.40;;;28.50;20.50;;;;;;10553189;28;20210;-75
2022/06/17 10:29:10;;;;;;;2.80;2.40;;;28.60;20.40;;;;;;10562852;28;20226;-76
2022/06/17 10:34:16;;;;;;;2.00;1.90;;;28.70;20.40;;;;;;10549091;27;20227;-75
2022/06/17 10:39:24;;;;;;;2.27;2.07;;;28.80;20.50;;;;;;10540769;27;20224;-76
2022/06/17 10:44:31;;;;;;;2.50;2.10;;;28.90;20.50;;;;;;10554885;27;20249;-75
2022/06/17 10:49:37;;;;;;;2.50;2.30;;;29.00;20.60;;;;;;10554633;27;20215;-75
2022/06/17 10:54:44;;;;;;;2.43;2.23;;;29.10;20.60;;;;;;10564251;28;20223;-75
2022/06/17 10:59:48;;;;;;;2.43;2.23;;;29.30;20.50;;;;;;10555807;27;20319;-76
2022/06/17 11:04:54;;;;;;;2.37;2.20;;;29.50;20.90;;;;;;10558987;27;20222;-77
2022/06/17 11:10:02;;;;;;;3.53;2.30;;;29.60;20.90;;;;;;10516140;28;20278;-77
2022/06/17 11:15:21;;;;;;;2.70;2.50;;;29.70;19.70;;;;;;10538818;27;20785;-77
2022/06/17 11:20:27;;;;;;;2.50;2.30;;;29.80;20.00;;;;;;10548755;28;20231;-76
2022/06/17 11:26:12;;;;;;;2.40;2.30;;;29.80;19.80;;;;;;10548926;28;20230;-77
2022/06/17 11:31:30;;;;;;;3.00;2.40;;;29.80;19.30;;;;;;10547715;27;20214;-77
2022/06/17 11:36:37;;;;;;;2.50;2.30;;;29.90;19.70;;;;;;10566781;27;20254;-77
2022/06/17 11:41:43;;;;;;;2.40;2.30;;;29.90;19.40;;;;;;10561474;27;20251;-78
2022/06/17 11:46:51;;;;;;;2.60;2.40;;;29.90;19.00;;;;;;10560956;27;20227;-77
2022/06/17 11:52:00;;;;;;;2.77;2.20;;;30.00;19.10;;;;;;10562243;28;20223;-78
2022/06/17 11:57:17;;;;;;;2.47;2.27;;;30.10;19.90;;;;;;10536678;27;20768;-77
2022/06/17 12:02:21;;;;;;;2.13;2.03;;;30.10;19.10;;;;;;10555239;27;20601;-78
2022/06/17 12:07:35;;;;;;;5.53;2.23;;;30.20;19.60;;;;;;10563101;28;20627;-76
2022/06/17 12:12:40;;;;;;;3.57;2.30;;;30.20;18.60;;;;;;10552428;27;20227;-75
2022/06/17 12:17:45;;;;;;;2.20;1.93;;;30.30;18.60;;;;;;10535073;28;20231;-74
2022/06/17 12:22:54;;;;;;;2.30;2.10;;;30.40;18.90;;;;;;10535442;28;20432;-75
2022/06/17 12:28:18;;;;;;;2.97;2.10;;;30.50;18.30;;;;;;10535631;28;20227;-75
2022/06/17 12:33:27;;;;;;;2.40;2.20;;;30.60;18.00;;;;;;10530694;28;20899;-75
2022/06/17 12:38:39;;;;;;;2.60;2.40;;;30.60;18.30;;;;;;10537256;28;20227;-76
2022/06/17 12:43:54;;;;;;;2.60;2.20;;;30.50;18.30;;;;;;10535965;28;20717;-75
2022/06/17 12:54:37;;;;;;;3.63;2.10;;;30.30;17.70;;;;;;10527050;28;20684;-75
2022/06/17 12:59:50;;;;;;;2.40;2.20;;;30.20;17.20;;;;;;10536050;28;20703;-75
2022/06/17 13:05:06;;;;;;;3.00;2.37;;;30.20;17.50;;;;;;10535420;28;20239;-75
2022/06/17 13:15:45;;;;;;;2.20;2.00;;;30.20;17.30;;;;;;10535293;28;20319;-75
2022/06/17 13:20:54;;;;;;;2.40;2.20;;;30.20;17.40;;;;;;10535016;28;20819;-74
2022/06/17 13:26:05;;;;;;;1.90;1.80;;;30.10;16.80;;;;;;10534956;28;20290;-76
2022/06/17 13:31:21;;;;;;;2.00;1.90;;;30.00;16.90;;;;;;10570874;28;20231;-75
2022/06/17 13:36:32;;;;;;;2.20;2.00;;;30.10;17.30;;;;;;10576419;28;20222;-74
2022/06/17 13:41:42;;;;;;;2.00;1.90;;;30.10;16.60;;;;;;10575803;27;20223;-74
2022/06/17 13:46:53;;;;;;;2.00;1.90;;;30.20;17.10;;;;;;10575383;27;20239;-75
2022/06/17 13:52:04;;;;;;;1.87;1.73;;;30.20;16.60;;;;;;10574438;28;20227;-74
2022/06/17 13:57:13;;;;;;;2.27;2.10;;;30.30;16.80;;;;;;10567156;27;20231;-74
2022/06/17 14:02:51;;;;;;;2.30;2.10;;;30.40;16.80;;;;;;10574263;27;20595;-76
2022/06/17 14:08:04;;;;;;;2.10;1.90;;;30.40;16.40;;;;;;10548942;27;20231;-77
2022/06/17 14:13:24;;;;;;;2.00;1.80;;;30.50;16.10;;;;;;10559080;28;20231;-75
2022/06/17 14:18:32;;;;;;;4.37;1.80;;;30.60;16.20;;;;;;10569832;28;20616;-77
2022/06/17 14:23:55;;;;;;;2.20;2.00;;;30.70;16.10;;;;;;10573505;27;20244;-76
2022/06/17 14:29:11;;;;;;;2.10;1.90;;;30.70;16.20;;;;;;10583012;27;20231;-75
2022/06/17 14:34:18;;;;;;;2.00;1.90;;;30.70;16.20;;;;;;10573277;28;20712;-74
2022/06/17 14:39:59;;;;;;;2.07;1.90;;;30.70;15.70;;;;;;10573208;28;20235;-77
2022/06/17 14:45:51;;;;;;;2.10;2.00;;;30.70;16.20;;;;;;10529357;28;20273;-76
2022/06/17 14:50:59;;;;;;;2.43;2.10;;;30.80;15.90;;;;;;10530709;28;20314;-74
2022/06/17 14:56:28;;;;;;;1.90;1.80;;;30.70;15.70;;;;;;10572500;28;20714;-76
2022/06/17 15:01:36;;;;;;;2.10;2.00;;;30.70;14.70;;;;;;10572344;28;20236;-76
2022/06/17 15:06:43;;;;;;;2.30;2.10;;;30.70;14.70;;;;;;10572699;28;20230;-75
2022/06/17 15:11:55;;;;;;;1.77;1.67;;;30.60;15.20;;;;;;10572258;27;20719;-75
2022/06/17 15:17:00;;;;;;;3.30;2.00;;;30.60;14.80;;;;;;10571518;28;20612;-75
2022/06/17 15:22:26;;;;;;;2.10;1.90;;;30.70;15.40;;;;;;10571918;28;20227;-76
2022/06/17 15:27:42;;;;;;;1.90;1.80;;;30.80;15.00;;;;;;10571321;28;20223;-75
2022/06/17 15:32:48;;;;;;;2.00;1.90;;;30.90;14.90;;;;;;10572206;28;20686;-75
2022/06/17 15:38:01;;;;;;;1.90;1.80;;;31.00;15.00;;;;;;10571403;28;20231;-76
2022/06/17 15:43:11;;;;;;;2.23;2.03;;;31.00;14.70;;;;;;10570996;28;20229;-75
2022/06/17 15:48:28;;;;;;;1.90;1.80;;;31.00;14.50;;;;;;10571356;28;20246;-75
2022/06/17 15:53:37;;;;;;;1.93;1.83;;;31.00;14.70;;;;;;10571212;28;20223;-75
2022/06/17 15:58:43;;;;;;;2.00;1.90;;;31.00;14.30;;;;;;10571106;28;20219;-77
2022/06/17 16:03:54;;;;;;;2.03;1.70;;;31.10;14.20;;;;;;10571265;28;20234;-76
2022/06/17 16:08:59;;;;;;;1.90;1.80;;;31.10;14.30;;;;;;10570880;28;20231;-75
2022/06/17 16:14:24;;;;;;;1.97;1.87;;;31.10;14.50;;;;;;10596169;27;20827;-76
2022/06/17 16:19:28;;;;;;;1.90;1.70;;;31.10;14.10;;;;;;10621310;27;20222;-76
2022/06/17 16:24:39;;;;;;;2.13;1.90;;;31.10;14.80;;;;;;10621219;27;20226;-75
2022/06/17 16:29:47;;;;;;;2.00;1.90;;;31.10;14.00;;;;;;10621263;27;20228;-76
2022/06/17 16:34:51;;;;;;;1.80;1.70;;;31.20;14.10;;;;;;10560081;27;20313;-73
2022/06/17 16:45:40;;;;;;;1.93;1.77;;;31.10;13.90;;;;;;10573523;27;20218;-74
2022/06/17 16:50:47;;;;;;;1.87;1.73;;;31.10;14.00;;;;;;10564810;27;20219;-74
2022/06/17 16:55:52;;;;;;;2.03;1.83;;;31.10;14.10;;;;;;10552502;27;20226;-74
2022/06/17 17:01:03;;;;;;;1.90;1.80;;;31.20;13.70;;;;;;10575317;27;20219;-74
2022/06/17 17:06:06;;;;;;;1.67;1.57;;;31.20;13.90;;;;;;10576734;28;20325;-75
2022/06/17 17:11:11;;;;;;;2.33;1.80;;;31.30;13.90;;;;;;10576673;28;20227;-74
2022/06/17 17:16:15;;;;;;;2.10;1.80;;;31.50;13.90;;;;;;10576611;27;20235;-75
2022/06/17 17:21:22;;;;;;;1.70;1.60;;;31.50;13.60;;;;;;10576289;27;20318;-75
2022/06/17 17:26:30;;;;;;;1.93;1.63;;;31.40;13.30;;;;;;10574917;28;20226;-75
2022/06/17 17:31:33;;;;;;;1.73;1.63;;;31.30;13.80;;;;;;10574050;28;20241;-75
2022/06/17 17:36:36;;;;;;;1.80;1.70;;;31.20;14.20;;;;;;10575189;28;20219;-74
2022/06/17 17:41:44;;;;;;;3.23;1.90;;;31.20;14.30;;;;;;10577605;28;20231;-74
2022/06/17 17:46:49;;;;;;;1.97;1.87;;;31.20;14.50;;;;;;10576031;27;20237;-75
2022/06/17 17:51:53;;;;;;;2.03;1.93;;;31.20;14.30;;;;;;10575818;28;20646;-75
2022/06/17 17:56:58;;;;;;;2.20;2.10;;;31.10;14.30;;;;;;10575512;27;20314;-75
2022/06/17 18:02:01;;;;;;;2.00;1.90;;;31.00;14.60;;;;;;10574516;27;20316;-75
2022/06/17 18:07:05;;;;;;;1.90;1.80;;;30.90;15.00;;;;;;10574024;28;20219;-75
2022/06/17 18:12:11;;;;;;;2.17;2.00;;;30.80;15.00;;;;;;10574316;28;20223;-75
2022/06/17 18:17:15;;;;;;;2.13;1.93;;;30.70;15.70;;;;;;10574139;28;20231;-75
2022/06/17 18:22:21;;;;;;;2.93;2.10;;;30.60;15.60;;;;;;10573664;27;20226;-74
2022/06/17 18:27:25;;;;;;;1.97;1.70;;;30.50;15.90;;;;;;10573790;27;20235;-75
2022/06/17 18:32:28;;;;;;;2.50;2.03;;;30.50;16.30;;;;;;10573589;27;20233;-74
2022/06/17 18:37:36;;;;;;;2.30;2.10;;;30.40;16.60;;;;;;10572605;27;20703;-75
2022/06/17 18:42:41;;;;;;;2.20;2.00;;;30.30;16.90;;;;;;10573030;28;20230;-74
2022/06/17 18:47:45;;;;;;;3.47;2.20;;;30.20;17.30;;;;;;10572897;27;20233;-74
2022/06/17 18:52:49;;;;;;;2.27;2.07;;;30.10;17.70;;;;;;10572697;28;20230;-75
2022/06/17 18:57:55;;;;;;;2.10;1.97;;;30.00;18.00;;;;;;10567407;27;20719;-77
2022/06/17 19:03:01;;;;;;;2.10;2.00;;;29.90;18.40;;;;;;10555475;27;20233;-76
2022/06/17 19:18:54;;;;;;;2.10;2.00;;;29.50;18.50;;;;;;10553175;28;20234;-76
2022/06/17 19:24:00;;;;;;;2.50;2.23;;;29.40;18.30;;;;;;10552613;28;20218;-75
2022/06/17 19:29:05;;;;;;;2.00;1.90;;;29.30;18.80;;;;;;10558851;28;20405;-76
2022/06/17 19:34:17;;;;;;;3.20;2.30;;;29.10;19.00;;;;;;10546269;28;20223;-75
2022/06/17 19:39:21;;;;;;;2.47;2.20;;;29.00;19.80;;;;;;10543362;28;20222;-75
2022/06/17 19:44:29;;;;;;;3.90;2.47;;;28.90;19.10;;;;;;10545240;27;20890;-76
2022/06/17 19:49:35;;;;;;;2.73;2.53;;;28.80;19.80;;;;;;10547559;28;20219;-75
2022/06/17 19:54:38;;;;;;;2.47;2.30;;;28.50;19.90;;;;;;10542834;27;20228;-74
2022/06/17 19:59:48;;;;;;;2.63;2.27;;;28.30;19.70;;;;;;10534679;27;20315;-74
2022/06/17 20:04:53;;;;;;;2.40;2.30;;;28.00;20.10;;;;;;10542862;27;20226;-76
2022/06/17 20:09:57;;;;;;;3.33;2.40;;;27.80;20.00;;;;;;10533989;28;20224;-76
2022/06/17 20:15:02;;;;;;;3.73;2.43;;;27.60;20.20;;;;;;10514147;28;20267;-76
2022/06/17 20:20:07;;;;;;;2.50;2.30;;;27.40;20.90;;;;;;10517670;28;20708;-77
2022/06/17 20:25:15;;;;;;;3.27;2.50;;;27.30;20.90;;;;;;10507261;28;20232;-75
2022/06/17 20:30:24;;;;;;;2.50;2.30;;;27.20;21.30;;;;;;10505287;28;20231;-75
2022/06/17 20:35:27;;;;;;;2.57;2.37;;;27.10;22.20;;;;;;10502512;28;20235;-75
2022/06/17 20:40:33;;;;;;;2.80;2.60;;;27.10;21.60;;;;;;10510286;28;20638;-74
2022/06/17 20:51:03;;;;;;;3.07;2.80;;;27.00;22.50;;;;;;10508111;28;20285;-75
2022/06/17 20:56:16;;;;;;;3.07;2.87;;;26.90;22.30;;;;;;10545614;27;20225;-75
2022/06/17 21:01:25;;;;;;;2.90;2.70;;;26.90;22.70;;;;;;10552604;27;20275;-75
2022/06/17 21:06:34;;;;;;;2.60;2.50;;;26.70;22.80;;;;;;10541574;27;20239;-75
2022/06/17 21:11:38;;;;;;;3.03;2.63;;;26.70;22.30;;;;;;10553528;27;20223;-75
2022/06/17 21:16:43;;;;;;;3.20;2.70;;;26.60;22.30;;;;;;10555969;27;20297;-75
2022/06/17 21:21:46;;;;;;;3.03;2.60;;;26.50;22.80;;;;;;10556859;27;20261;-75
2022/06/17 21:26:50;;;;;;;3.20;2.93;;;26.40;22.80;;;;;;10559118;27;20234;-75
2022/06/17 21:31:54;;;;;;;3.23;3.03;;;26.30;22.90;;;;;;10546487;27;20223;-75
2022/06/17 21:36:58;;;;;;;3.67;3.27;;;26.20;23.40;;;;;;10515413;28;20233;-74
2022/06/17 21:42:03;;;;;;;3.30;3.10;;;26.20;23.10;;;;;;10545042;28;20222;-75
2022/06/17 21:47:08;;;;;;;3.17;2.87;;;26.00;23.40;;;;;;10524783;28;20226;-74
2022/06/17 21:52:17;;;;;;;3.50;3.20;;;25.90;24.10;;;;;;10544313;27;20930;-74
2022/06/17 21:57:21;;;;;;;3.53;3.23;;;25.50;24.20;;;;;;10549326;28;20530;-75
2022/06/17 22:02:28;;;;;;;3.13;2.80;;;25.20;23.80;;;;;;10544231;28;20226;-75
2022/06/17 22:07:31;;;;;;;4.23;3.20;;;25.00;24.40;;;;;;10540406;28;20231;-74
2022/06/17 22:12:34;;;;;;;3.10;2.70;;;24.80;24.30;;;;;;10536120;28;20226;-75
2022/06/17 22:17:39;;;;;;;2.80;2.60;;;24.60;24.30;;;;;;10545791;27;20223;-74
2022/06/17 22:22:42;;;;;;;3.90;2.80;;;24.50;25.10;;;;;;10551131;27;20233;-75
2022/06/17 22:27:46;;;;;;;3.13;2.77;;;24.50;25.00;;;;;;10549893;27;20235;-75
2022/06/17 22:32:52;;;;;;;3.10;2.90;;;24.50;25.00;;;;;;10553038;28;20230;-75
2022/06/17 22:37:58;;;;;;;3.10;2.90;;;24.50;25.50;;;;;;10549924;28;20237;-75
2022/06/17 22:43:02;;;;;;;3.30;3.00;;;24.50;25.40;;;;;;10554242;28;20241;-75
2022/06/17 22:48:13;;;;;;;3.47;3.00;;;24.40;25.30;;;;;;10544642;28;20219;-74
2022/06/17 22:53:20;;;;;;;3.57;3.20;;;24.30;26.00;;;;;;10550882;28;20234;-75
2022/06/17 22:58:25;;;;;;;3.60;3.00;;;24.20;25.80;;;;;;10545747;28;20228;-75
2022/06/17 23:08:52;;;;;;;3.30;3.00;;;23.90;25.60;;;;;;10546702;28;20269;-75
2022/06/17 23:13:55;;;;;;;3.30;3.03;;;23.80;25.50;;;;;;10554594;28;20739;-75
2022/06/17 23:24:20;;;;;;;2.87;2.67;;;23.70;25.90;;;;;;10502483;28;20219;-75
2022/06/17 23:29:24;;;;;;;3.13;2.80;;;23.60;25.70;;;;;;10511917;28;20230;-75
2022/06/17 23:34:31;;;;;;;3.30;3.00;;;23.60;25.80;;;;;;10506543;28;20250;-74
2022/06/17 23:39:34;;;;;;;2.60;2.40;;;23.60;26.70;;;;;;10479063;28;1144612;-74
2022/06/17 23:44:38;;;;;;;3.17;2.87;;;23.50;25.80;;;;;;10518475;27;20273;-75
2022/06/17 23:49:44;;;;;;;2.70;2.60;;;23.50;25.80;;;;;;10542617;28;20226;-75
2022/06/17 23:54:47;;;;;;;3.77;3.07;;;23.50;26.30;;;;;;10547230;28;20231;-75
2022/06/17 23:59:50;;;;;;;4.20;3.23;;;23.50;26.30;;;;;;10551713;28;20699;-75
